Hlavní strana
METAR-TAF:

METAR-TAF

Letiště :

Columbus, Georgie, Spojené státy americké

zeměpisná šířka: 32-30-58N, zeměpisná délka: 084-56-32W, výška: 121 m

Aktuální stav počasí

Zpráva byla vytvořena před 1 hodinou a 2 minutami, v 10:51 UTC
Bezvětří
Teplota 22°C
Vlhkost vzduchu 83%
Tlak 1022 hPa
Viditelnost: 16.1 km
Jasno

METAR: KCSG 241051Z AUTO 00000KT 10SM CLR 22/19 A3017 RMK AO2 SLP209 T02170189

Čas: 07:53 (11:53 UTC)

Předpověď počasí

Zpráva byla vytvořena před 23 minutami, v 11:30 UTC
Předpověď platná od 24 v 12 UTC do 25 v 12 UTC
vítr z různých směrů 3 kt
Viditelnost: 10 km
Jasno
Od 24 v 1500 UTC
Západní vítr 5 kt
Viditelnost: 10 km
Skoro jasno ve výšce 4500 ft
Od 25 v 0100 UTC
Severní vítr kt
Viditelnost: 10 km
Skoro jasno ve výšce 6000 ft
Polojasno ve výšce 25000 ft

TAF: KCSG 241130Z 2412/2512 VRB03KT P6SM SKC FM241500 27005KT P6SM FEW045 FM250100 00000KT P6SM FEW060 SCT250

Stav a předpovědi počasí z více než 4 000 letišť (zprávy METAR a TAF).

Červené a žluté tečky na mapě představují dostupné meteorologické stanice.

Když kurzor umístíte na tečku, zobrazí se název stanice.

Pak kliknutím zobrazíte stav a předpověď počasí.

Chcete-li změnit mapu, kliknutím na zelené tlačítko se znaménkem +mapu přiblížíte, kliknutím na zelené tlačítko se znaménkem – mapu oddálíte a kliknutím na zelené šipky přejdete na sousední mapy.


METAR-TAF: